Flight Track Log - Related Links

Times and Time Zones

All times are in EDT time to prevent confusion due to time zone crossing. See the FFT783 flight status page for this flight to view local times or setup timezone preferences in your user account.

Time Position Orientation Groundspeed Altitude Reporting Facility
EDT Latitude Longitude Course Direction KTS MPH feet Rate Location/Type
Fri 11:30:57 AM 39.8333 -104.7500 270° West 174 200 6,600  Level Denver TRACON
Fri 11:31:57 AM 39.8333 -104.8167 270° West 225 259 7,300 1,109 Climbing Denver TRACON
Fri 11:32:56 AM 39.8333 -104.9167 270° West 281 323 8,800 1,773 Climbing Denver TRACON
Fri 11:34:09 AM 39.8322 -105.0419 269° West 293 337 11,200 2,222 Climbing Denver Center
Fri 11:35:11 AM 39.8072 -105.1544 254° West 302 348 13,800 2,468 Climbing Denver Center
Fri 11:36:13 AM 39.7842 -105.2561 254° West 295 339 16,300 2,129 Climbing Denver Center
Fri 11:37:15 AM 39.7603 -105.3689 255° West 301 346 18,200 1,742 Climbing Denver Center
Fri 11:38:17 AM 39.7353 -105.4789 254° West 316 364 19,900 1,790 Climbing Denver Center
Fri 11:39:19 AM 39.7089 -105.5994 254° West 325 374 21,900 1,355 Climbing Denver Center
Fri 11:40:21 AM 39.6781 -105.7161 251° West 345 397 22,700 968 Climbing Denver Center
Fri 11:41:23 AM 39.6411 -105.8511 250° West 369 425 23,900 1,258 Climbing Denver Center
Fri 11:42:25 AM 39.6072 -105.9839 252° West 387 445 25,300 1,248 Climbing Denver Center
Fri 11:43:28 AM 39.5711 -106.1186 251° West 396 456 26,500 1,104 Climbing Denver Center
Fri 11:44:30 AM 39.5367 -106.2450 251° West 407 468 27,600 1,113 Climbing Denver Center
Fri 11:45:32 AM 39.4906 -106.4133 251° West 414 476 28,800 1,210 Climbing Denver Center
Fri 11:46:34 AM 39.4497 -106.5608 250° West 423 487 30,100 1,065 Climbing Denver Center
Fri 11:47:36 AM 39.4117 -106.6975 250° West 423 487 31,000 1,065 Climbing Denver Center
Fri 11:48:38 AM 39.3661 -106.8597 250° West 428 493 32,300 1,258 Climbing Denver Center
Fri 11:49:40 AM 39.3300 -106.9956 251° West 420 483 33,600 1,161 Climbing Denver Center
Fri 11:50:42 AM 39.2858 -107.1514 250° West 414 476 34,700 1,016 Climbing Denver Center
Fri 11:51:44 AM 39.2464 -107.2872 249° West 419 482 35,700 629 Climbing Denver Center
Fri 11:52:46 AM 39.2028 -107.4433 250° West 416 479 36,000 145 Climbing Denver Center
Fri 11:53:48 AM 39.1642 -107.5778 250° West 417 480 36,000  Level Denver Center
Fri 11:54:50 AM 39.1189 -107.7328 249° West 414 476 36,000  Level Denver Center
Fri 11:55:52 AM 39.0814 -107.8658 250° West 415 478 36,000  Level Denver Center
Fri 11:56:54 AM 39.0428 -107.9975 249° West 409 471 36,000  Level Denver Center
Fri 11:57:56 AM 38.9983 -108.1522 250° West 412 474 36,000  Level Denver Center
Fri 11:58:58 AM 38.9583 -108.2864 249° West 416 479 36,000  Level Denver Center
Fri 12:00:00 PM 38.9122 -108.4411 249° West 415 478 36,000  Level Denver Center
Fri 12:01:02 PM 38.8753 -108.5697 250° West 400 460 36,000 -48 Level Denver Center
Fri 12:02:04 PM 38.8303 -108.7192 249° West 402 463 35,900  Descending Denver Center
Fri 12:03:06 PM 38.7925 -108.8481 249° West 403 464 36,000 48 Climbing Denver Center
Fri 12:04:08 PM 38.7478 -108.9978 249° West 402 463 36,000  Level Denver Center
Fri 12:05:10 PM 38.7100 -109.1258 249° West 401 461 36,000  Level Denver Center
Fri 12:06:13 PM 38.6711 -109.2514 248° West 397 457 36,000  Level Denver Center
Fri 12:07:15 PM 38.6261 -109.3981 249° West 396 456 36,000  Level Denver Center
Fri 12:08:17 PM 38.5881 -109.5233 249° West 396 456 36,000  Level Denver Center
Fri 12:09:19 PM 38.5422 -109.6689 248° West 395 455 36,000  Level Denver Center
Fri 12:10:21 PM 38.5039 -109.7919 248° West 391 450 36,000  Level Denver Center
Fri 12:11:23 PM 38.4578 -109.9397 248° West 396 456 36,000  Level Denver Center
Fri 12:12:37 PM 38.4189 -110.0661 249° West 400 460 36,000 -81 Level Denver Center
Fri 12:13:51 PM 38.3656 -110.2353 248° West 403 464 35,800 -362 Descending Denver Center
Fri 12:15:06 PM 38.3119 -110.4011 248° West 399 459 35,100 -613 Descending Denver Center
Fri 12:16:08 PM 38.2494 -110.5378 240° Southwest 398 458 34,400 -629 Descending Denver Center
Fri 12:17:10 PM 38.1881 -110.6750 240° Southwest 401 461 33,800 -576 Descending Denver Center
Fri 12:18:13 PM 38.1347 -110.7931 240° Southwest 401 461 33,200 -576 Descending Salt Lake Center
Fri 12:19:15 PM 38.0744 -110.9300 241° Southwest 399 459 32,600 -581 Descending Salt Lake Center
Fri 12:20:17 PM 38.0200 -111.0481 240° Southwest 394 453 32,000 -290 Descending Salt Lake Center
Fri 12:21:19 PM 37.9661 -111.1675 240° Southwest 391 450 32,000  Level Salt Lake Center
Fri 12:22:21 PM 37.9114 -111.2864 240° Southwest 392 451 32,000  Level Salt Lake Center
Fri 12:23:23 PM 37.8442 -111.4319 240° Southwest 398 458 32,000  Level Salt Lake Center
Fri 12:24:25 PM 37.7908 -111.5553 241° Southwest 401 461 32,000  Level Salt Lake Center
Fri 12:25:27 PM 37.7328 -111.6747 238° Southwest 401 461 32,000  Level Salt Lake Center
Fri 12:26:29 PM 37.6769 -111.7947 240° Southwest 397 457 32,000  Level Salt Lake Center
Fri 12:27:31 PM 37.6217 -111.9144 240° Southwest 395 455 32,000  Level Salt Lake Center
Fri 12:28:33 PM 37.5667 -112.0325 240° Southwest 392 451 32,000  Level Salt Lake Center
Fri 12:29:35 PM 37.5006 -112.1711 239° Southwest 386 444 32,000  Level Salt Lake Center
Fri 12:30:37 PM 37.4472 -112.2858 240° Southwest 383 441 32,000 -48 Level Salt Lake Center
Fri 12:31:39 PM 37.3936 -112.3989 239° Southwest 379 436 31,900  Descending Salt Lake Center
Fri 12:32:14 PM 37.3714 -112.4436 238° Southwest 374 430 32,000 62 Climbing Los Angeles Center
Fri 12:33:16 PM 37.3075 -112.5786 239° Southwest 372 428 32,000  Level Los Angeles Center
Fri 12:34:18 PM 37.2539 -112.6897 239° Southwest 369 425 32,000  Level Los Angeles Center
Fri 12:35:20 PM 37.1992 -112.8058 239° Southwest 378 435 32,000  Level Los Angeles Center
Fri 12:36:22 PM 37.1403 -112.9281 239° Southwest 399 459 32,000  Level Los Angeles Center
Fri 12:37:25 PM 37.0819 -113.0492 239° Southwest 404 465 32,000  Level Los Angeles Center
Fri 12:38:27 PM 37.0133 -113.1928 239° Southwest 401 461 32,000  Level Los Angeles Center
Fri 12:39:29 PM 36.9547 -113.3125 239° Southwest 401 461 32,000 -48 Level Los Angeles Center
Fri 12:40:31 PM 36.8969 -113.4311 239° Southwest 400 460 31,900 -629 Descending Los Angeles Center
Fri 12:41:33 PM 36.8386 -113.5500 239° Southwest 401 461 30,700 -2,371 Descending Los Angeles Center
Fri 12:42:35 PM 36.7797 -113.6703 239° Southwest 405 466 27,000 -3,387 Descending Los Angeles Center
Fri 12:43:37 PM 36.7183 -113.7950 238° Southwest 419 482 23,700 -3,290 Descending Los Angeles Center
Fri 12:44:39 PM 36.6458 -113.9411 238° Southwest 415 478 20,200 -3,000 Descending Los Angeles Center
Fri 12:45:41 PM 36.5861 -114.0603 238° Southwest 408 470 17,500 -2,496 Descending Los Angeles Center
Fri 12:46:44 PM 36.5303 -114.1800 240° Southwest 401 461 15,000 -1,920 Descending Los Angeles Center
Fri 12:47:46 PM 36.4797 -114.2917 241° Southwest 385 443 13,500 -1,113 Descending Los Angeles Center
Fri 12:48:48 PM 36.4350 -114.3911 241° Southwest 338 389 12,700 -823 Descending Los Angeles Center
Fri 12:49:50 PM 36.3958 -114.4772 241° Southwest 294 338 11,800 -1,065 Descending Los Angeles Center
Fri 12:50:52 PM 36.3175 -114.5389 212° Southwest 276 318 10,500 -1,218 Descending Los Angeles Center
Fri 12:52:03 PM 36.2428 -114.5981 213° Southwest 275 316 9,100 -1,161 Descending Los Angeles Center
Fri 12:52:56 PM 36.1886 -114.6394 212° Southwest 271 312 8,100 -939 Descending Los Angeles Center
Fri 12:53:58 PM 36.1478 -114.7206 238° Southwest 274 315 7,300 -768 Descending Los Angeles Center
Fri 12:55:01 PM 36.1069 -114.8014 238° Southwest 275 316 6,500 -432 Descending Los Angeles Center
Fri 12:56:03 PM 36.0756 -114.8794 244° Southwest 267 307 6,400 -893 Descending Los Angeles Center
Fri 12:57:02 PM 36.0744 -114.9719 269° West 240 276 4,700 -1,550 Descending Los Angeles Center
Fri 12:58:03 PM 36.0728 -115.0442 268° West 204 235 3,300 -1,039 Descending Los Angeles Center
Fri 12:59:09 PM 36.0739 -115.1008 271° West 185 213 2,500 -558 Descending Los Angeles Center
Fri 01:00:12 PM 36.0739 -115.1486 270° West 162 186 2,100 -381 Descending Los Angeles Center

Login

Don't have an account? Register now (free) for customized features, flight alerts, and more!